National Weather Service United States Department of Commerce
Click Here for Latest Airport Weather Warnings
 
Latest Huntsville TAF


000
FTUS44 KHUN 021245 AAF
TAFHSV
TAF AMD
KHSV 021245Z 0213/0312 VRB04KT P6SM SCT006 SCT015 BKN250
TEMPO 0213/0214 BKN007
FM021400 01005KT P6SM SCT035 BKN120
FM030000 VRB03KT P6SM SCT250=

Latest Muscle Shoals TAF


000
FTUS44 KHUN 021245 AAS
TAFMSL
TAF AMD
KMSL 021245Z 0213/0312 VRB03KT P6SM SCT006 SCT030 BKN250
TEMPO 0213/0214 BKN006
FM021400 01004KT P6SM SCT040 BKN100
FM030000 VRB02KT P6SM SCT250=


Back to Main Huntsville Weather Forecast Office Page